CheckWX is a tool to help pilots better visualize weather data.  It is not intended as a substitute for an official pre-flight weather briefing.

16:19:10 UTC

KRDM TAF
Roberts Field Airport
Redmond, Oregon, USA
KRDM 191140Z 1912/2012 22011KT P6SM BKN060 FM191600 VRB06KT P6SM -SHRA BKN035 OVC050 FM192200 32008KT P6SM VCSH SCT035 BKN050 FM200300 32004KT P6SM BKN045

Nov-19@
12:00 UTC

Nov-19 @ 12:00 UTC

Nov-19@
16:00 UTC

Nov-19 @ 16:00 UTC

KRDM 191140Z 1912/2012 22011KT P6SM BKN060

Expired

Wind
  • 220° at 11 KTS
Cloud Levels
  • Broken at 6,000' AGL

Nov-19@
16:00 UTC

Nov-19 @ 16:00 UTC

Nov-19@
22:00 UTC

Nov-19 @ 22:00 UTC

FM191600 VRB06KT P6SM -SHRA BKN035 OVC050

From

From Standard forecast or significant change

Wind
  • Variable at 6 KTS
Conditions
Light Rain
Cloud Levels
  • Broken at 3,500' AGL
  • Overcast at 5,000' AGL

Nov-19@
22:00 UTC

Nov-19 @ 22:00 UTC

Nov-20@
03:00 UTC

Nov-20 @ 03:00 UTC

FM192200 32008KT P6SM VCSH SCT035 BKN050

From

From Standard forecast or significant change

Wind
  • 320° at 8 KTS
Cloud Levels
  • Scattered at 3,500' AGL
  • Broken at 5,000' AGL

Nov-20@
03:00 UTC

Nov-20 @ 03:00 UTC

Nov-20@
12:00 UTC

Nov-20 @ 12:00 UTC

FM200300 32004KT P6SM BKN045

From

From Standard forecast or significant change

Wind
  • 320° at 4 KTS
Cloud Levels
  • Broken at 4,500' AGL